sensor_id;sensor_type;location;lat;lon;timestamp;pressure;altitude;pressure_sealevel;temperature;humidity
76229;BME280;65021;53.174;18.160;2023-05-07T00:01:27;101934.73;;;3.93;91.39
76229;BME280;65021;53.174;18.160;2023-05-07T00:03:53;101934.16;;;3.87;91.57
76229;BME280;65021;53.174;18.160;2023-05-07T00:06:20;101938.70;;;3.80;91.52
76229;BME280;65021;53.174;18.160;2023-05-07T00:08:46;101939.67;;;3.73;91.59
76229;BME280;65021;53.174;18.160;2023-05-07T00:11:13;101937.95;;;3.67;91.59
76229;BME280;65021;53.174;18.160;2023-05-07T00:13:39;101938.75;;;3.62;91.78
76229;BME280;65021;53.174;18.160;2023-05-07T00:16:06;101935.48;;;3.61;91.92
76229;BME280;65021;53.174;18.160;2023-05-07T00:18:32;101939.41;;;3.62;91.80
76229;BME280;65021;53.174;18.160;2023-05-07T00:20:59;101935.39;;;3.61;91.67
76229;BME280;65021;53.174;18.160;2023-05-07T00:23:26;101939.40;;;3.59;91.63
76229;BME280;65021;53.174;18.160;2023-05-07T00:25:52;101936.91;;;3.57;91.60
76229;BME280;65021;53.174;18.160;2023-05-07T00:28:19;101935.28;;;3.54;91.48
76229;BME280;65021;53.174;18.160;2023-05-07T00:30:45;101936.41;;;3.49;91.43
76229;BME280;65021;53.174;18.160;2023-05-07T00:33:12;101941.98;;;3.45;91.38
76229;BME280;65021;53.174;18.160;2023-05-07T00:35:38;101940.30;;;3.40;91.54
76229;BME280;65021;53.174;18.160;2023-05-07T00:38:05;101945.69;;;3.38;91.68
76229;BME280;65021;53.174;18.160;2023-05-07T00:40:31;101943.33;;;3.34;91.70
76229;BME280;65021;53.174;18.160;2023-05-07T00:42:58;101947.79;;;3.30;91.67
76229;BME280;65021;53.174;18.160;2023-05-07T00:45:27;101951.55;;;3.26;91.46
76229;BME280;65021;53.174;18.160;2023-05-07T00:47:56;101954.36;;;3.21;91.53
76229;BME280;65021;53.174;18.160;2023-05-07T00:50:23;101956.39;;;3.16;91.43
76229;BME280;65021;53.174;18.160;2023-05-07T00:52:50;101960.42;;;3.11;91.60
76229;BME280;65021;53.174;18.160;2023-05-07T00:55:17;101961.07;;;3.07;91.20
76229;BME280;65021;53.174;18.160;2023-05-07T00:57:44;101965.83;;;3.00;91.13
76229;BME280;65021;53.174;18.160;2023-05-07T01:00:12;101966.23;;;2.95;90.76
76229;BME280;65021;53.174;18.160;2023-05-07T01:02:39;101964.63;;;2.88;90.86
76229;BME280;65021;53.174;18.160;2023-05-07T01:05:08;101961.48;;;2.83;90.87
76229;BME280;65021;53.174;18.160;2023-05-07T01:07:37;101959.38;;;2.89;90.81
76229;BME280;65021;53.174;18.160;2023-05-07T01:10:05;101961.05;;;2.86;91.34
76229;BME280;65021;53.174;18.160;2023-05-07T01:12:34;101958.77;;;2.80;91.47
76229;BME280;65021;53.174;18.160;2023-05-07T01:15:02;101961.32;;;2.73;91.48
76229;BME280;65021;53.174;18.160;2023-05-07T01:17:29;101960.69;;;2.67;91.54
76229;BME280;65021;53.174;18.160;2023-05-07T01:19:59;101959.08;;;2.63;91.81
76229;BME280;65021;53.174;18.160;2023-05-07T01:22:35;101965.83;;;2.59;91.76
76229;BME280;65021;53.174;18.160;2023-05-07T01:25:04;101965.88;;;2.53;91.62
76229;BME280;65021;53.174;18.160;2023-05-07T01:27:31;101968.62;;;2.50;91.55
76229;BME280;65021;53.174;18.160;2023-05-07T01:29:59;101970.05;;;2.45;91.44
76229;BME280;65021;53.174;18.160;2023-05-07T01:35:18;101977.83;;;2.42;91.88
76229;BME280;65021;53.174;18.160;2023-05-07T01:37:47;101977.72;;;2.42;92.13
76229;BME280;65021;53.174;18.160;2023-05-07T01:40:13;101982.81;;;2.44;92.34
76229;BME280;65021;53.174;18.160;2023-05-07T01:42:42;101983.52;;;2.44;91.95
76229;BME280;65021;53.174;18.160;2023-05-07T01:45:10;101984.98;;;2.39;91.62
76229;BME280;65021;53.174;18.160;2023-05-07T01:47:37;101986.76;;;2.31;91.53
76229;BME280;65021;53.174;18.160;2023-05-07T01:50:07;101990.55;;;2.25;91.47
76229;BME280;65021;53.174;18.160;2023-05-07T01:52:37;101992.02;;;2.21;91.58
76229;BME280;65021;53.174;18.160;2023-05-07T01:55:05;101994.23;;;2.16;91.77
76229;BME280;65021;53.174;18.160;2023-05-07T01:57:32;101996.61;;;2.11;91.84
76229;BME280;65021;53.174;18.160;2023-05-07T01:59:59;101996.07;;;2.09;91.93
76229;BME280;65021;53.174;18.160;2023-05-07T02:02:26;101996.09;;;2.04;92.04
76229;BME280;65021;53.174;18.160;2023-05-07T02:04:52;101994.91;;;1.99;92.07
76229;BME280;65021;53.174;18.160;2023-05-07T02:07:19;101994.92;;;1.95;92.03
76229;BME280;65021;53.174;18.160;2023-05-07T02:09:45;101992.97;;;1.93;92.03
76229;BME280;65021;53.174;18.160;2023-05-07T02:12:12;101992.27;;;1.93;91.90
76229;BME280;65021;53.174;18.160;2023-05-07T02:14:38;101995.62;;;1.92;91.80
76229;BME280;65021;53.174;18.160;2023-05-07T02:17:05;101995.40;;;1.91;91.68
76229;BME280;65021;53.174;18.160;2023-05-07T02:19:32;101995.32;;;1.90;91.77
76229;BME280;65021;53.174;18.160;2023-05-07T02:21:58;102001.25;;;1.89;91.66
76229;BME280;65021;53.174;18.160;2023-05-07T02:24:25;102004.98;;;1.88;91.57
76229;BME280;65021;53.174;18.160;2023-05-07T02:26:51;102005.73;;;1.89;92.08
76229;BME280;65021;53.174;18.160;2023-05-07T02:29:18;102006.77;;;1.89;92.46
76229;BME280;65021;53.174;18.160;2023-05-07T02:31:45;102007.14;;;1.92;92.66
76229;BME280;65021;53.174;18.160;2023-05-07T02:34:11;102007.95;;;1.91;93.00
76229;BME280;65021;53.174;18.160;2023-05-07T02:36:38;102008.52;;;1.90;92.92
76229;BME280;65021;53.174;18.160;2023-05-07T02:39:04;102007.84;;;1.87;92.98
76229;BME280;65021;53.174;18.160;2023-05-07T02:41:31;102004.74;;;1.86;93.10
76229;BME280;65021;53.174;18.160;2023-05-07T02:43:58;102004.58;;;1.82;93.23
76229;BME280;65021;53.174;18.160;2023-05-07T02:46:24;102009.98;;;1.76;93.36
76229;BME280;65021;53.174;18.160;2023-05-07T02:48:51;102014.75;;;1.72;93.35
76229;BME280;65021;53.174;18.160;2023-05-07T02:51:20;102012.81;;;1.70;93.23
76229;BME280;65021;53.174;18.160;2023-05-07T02:53:46;102012.70;;;1.66;93.05
76229;BME280;65021;53.174;18.160;2023-05-07T02:56:13;102016.69;;;1.62;92.79
76229;BME280;65021;53.174;18.160;2023-05-07T02:58:40;102013.34;;;1.63;92.55
76229;BME280;65021;53.174;18.160;2023-05-07T03:01:08;102015.61;;;1.62;92.39
76229;BME280;65021;53.174;18.160;2023-05-07T03:03:35;102016.12;;;1.64;92.29
76229;BME280;65021;53.174;18.160;2023-05-07T03:06:02;102015.30;;;1.69;92.34
76229;BME280;65021;53.174;18.160;2023-05-07T03:08:28;102018.55;;;1.71;92.30
76229;BME280;65021;53.174;18.160;2023-05-07T03:10:55;102024.06;;;1.72;92.21
76229;BME280;65021;53.174;18.160;2023-05-07T03:13:22;102027.23;;;1.74;91.97
76229;BME280;65021;53.174;18.160;2023-05-07T03:15:48;102028.46;;;1.74;91.90
76229;BME280;65021;53.174;18.160;2023-05-07T03:18:15;102030.84;;;1.79;91.90
76229;BME280;65021;53.174;18.160;2023-05-07T03:20:41;102039.45;;;2.01;91.89
76229;BME280;65021;53.174;18.160;2023-05-07T03:23:08;102035.55;;;2.26;91.51
76229;BME280;65021;53.174;18.160;2023-05-07T03:25:34;102036.08;;;2.41;91.01
76229;BME280;65021;53.174;18.160;2023-05-07T03:28:01;102043.49;;;2.51;90.70
76229;BME280;65021;53.174;18.160;2023-05-07T03:30:27;102042.88;;;2.60;90.30
76229;BME280;65021;53.174;18.160;2023-05-07T03:32:54;102045.65;;;2.70;89.93
76229;BME280;65021;53.174;18.160;2023-05-07T03:35:21;102041.95;;;2.79;89.65
76229;BME280;65021;53.174;18.160;2023-05-07T03:37:47;102046.89;;;2.90;89.27
76229;BME280;65021;53.174;18.160;2023-05-07T03:40:14;102047.58;;;3.04;89.02
76229;BME280;65021;53.174;18.160;2023-05-07T03:42:40;102050.85;;;3.18;88.69
76229;BME280;65021;53.174;18.160;2023-05-07T03:45:08;102052.09;;;3.28;88.50
76229;BME280;65021;53.174;18.160;2023-05-07T03:47:35;102054.67;;;3.43;88.40
76229;BME280;65021;53.174;18.160;2023-05-07T03:50:01;102053.88;;;3.60;88.34
76229;BME280;65021;53.174;18.160;2023-05-07T03:52:28;102057.50;;;3.80;88.34
76229;BME280;65021;53.174;18.160;2023-05-07T03:54:54;102059.33;;;3.94;87.60
76229;BME280;65021;53.174;18.160;2023-05-07T03:57:21;102061.25;;;4.06;87.34
76229;BME280;65021;53.174;18.160;2023-05-07T03:59:47;102063.59;;;4.26;87.24
76229;BME280;65021;53.174;18.160;2023-05-07T04:02:14;102065.20;;;4.42;87.00
76229;BME280;65021;53.174;18.160;2023-05-07T04:04:40;102066.70;;;4.55;86.64
76229;BME280;65021;53.174;18.160;2023-05-07T04:07:07;102064.48;;;4.64;86.14
76229;BME280;65021;53.174;18.160;2023-05-07T04:09:34;102065.78;;;4.77;86.20
76229;BME280;65021;53.174;18.160;2023-05-07T04:12:01;102067.56;;;4.88;85.71
76229;BME280;65021;53.174;18.160;2023-05-07T04:14:27;102071.40;;;5.04;85.58
76229;BME280;65021;53.174;18.160;2023-05-07T04:16:54;102069.44;;;5.25;85.30
76229;BME280;65021;53.174;18.160;2023-05-07T04:19:21;102072.38;;;5.53;85.06
76229;BME280;65021;53.174;18.160;2023-05-07T04:21:47;102084.42;;;5.80;84.99
76229;BME280;65021;53.174;18.160;2023-05-07T04:24:14;102087.75;;;6.07;84.91
76229;BME280;65021;53.174;18.160;2023-05-07T04:26:40;102086.14;;;6.33;84.49
76229;BME280;65021;53.174;18.160;2023-05-07T04:29:07;102086.11;;;6.57;84.71
76229;BME280;65021;53.174;18.160;2023-05-07T04:31:33;102087.85;;;6.80;84.52
76229;BME280;65021;53.174;18.160;2023-05-07T04:34:00;102087.05;;;6.98;83.49
76229;BME280;65021;53.174;18.160;2023-05-07T04:36:27;102091.96;;;7.09;83.51
76229;BME280;65021;53.174;18.160;2023-05-07T04:38:53;102090.81;;;7.21;82.70
76229;BME280;65021;53.174;18.160;2023-05-07T04:41:20;102093.21;;;7.37;82.60
76229;BME280;65021;53.174;18.160;2023-05-07T04:43:47;102096.41;;;7.46;82.67
76229;BME280;65021;53.174;18.160;2023-05-07T04:46:14;102093.41;;;7.54;82.61
76229;BME280;65021;53.174;18.160;2023-05-07T04:48:40;102095.25;;;7.54;81.34
76229;BME280;65021;53.174;18.160;2023-05-07T04:51:07;102099.91;;;7.57;81.48
76229;BME280;65021;53.174;18.160;2023-05-07T04:53:33;102098.02;;;7.62;80.81
76229;BME280;65021;53.174;18.160;2023-05-07T04:56:00;102106.59;;;7.72;81.29
76229;BME280;65021;53.174;18.160;2023-05-07T04:58:27;102104.52;;;7.78;79.90
76229;BME280;65021;53.174;18.160;2023-05-07T05:00:58;102108.57;;;7.82;78.89
76229;BME280;65021;53.174;18.160;2023-05-07T05:03:25;102109.45;;;7.80;77.76
76229;BME280;65021;53.174;18.160;2023-05-07T05:05:52;102114.33;;;7.82;77.49
76229;BME280;65021;53.174;18.160;2023-05-07T05:08:19;102112.91;;;7.90;76.94
76229;BME280;65021;53.174;18.160;2023-05-07T05:10:45;102115.42;;;8.00;77.92
76229;BME280;65021;53.174;18.160;2023-05-07T05:13:14;102109.55;;;8.18;79.07
76229;BME280;65021;53.174;18.160;2023-05-07T05:15:41;102113.56;;;8.34;77.65
76229;BME280;65021;53.174;18.160;2023-05-07T05:18:08;102119.56;;;8.41;76.47
76229;BME280;65021;53.174;18.160;2023-05-07T05:20:34;102122.65;;;8.47;76.07
76229;BME280;65021;53.174;18.160;2023-05-07T05:23:01;102120.29;;;8.57;76.66
76229;BME280;65021;53.174;18.160;2023-05-07T05:25:27;102119.70;;;8.73;77.52
76229;BME280;65021;53.174;18.160;2023-05-07T05:27:54;102125.97;;;8.94;76.86
76229;BME280;65021;53.174;18.160;2023-05-07T05:30:21;102125.84;;;9.07;77.00
76229;BME280;65021;53.174;18.160;2023-05-07T05:32:48;102122.55;;;9.19;75.23
76229;BME280;65021;53.174;18.160;2023-05-07T05:35:14;102120.86;;;9.23;74.75
76229;BME280;65021;53.174;18.160;2023-05-07T05:37:41;102122.88;;;9.25;72.70
76229;BME280;65021;53.174;18.160;2023-05-07T05:40:08;102124.58;;;9.30;74.18
76229;BME280;65021;53.174;18.160;2023-05-07T05:42:35;102131.09;;;9.35;73.21
76229;BME280;65021;53.174;18.160;2023-05-07T05:45:01;102133.78;;;9.44;74.74
76229;BME280;65021;53.174;18.160;2023-05-07T05:47:29;102130.88;;;9.53;72.18
76229;BME280;65021;53.174;18.160;2023-05-07T05:49:55;102132.05;;;9.63;73.56
76229;BME280;65021;53.174;18.160;2023-05-07T05:52:22;102129.14;;;9.75;72.19
76229;BME280;65021;53.174;18.160;2023-05-07T05:54:50;102126.84;;;9.92;73.43
76229;BME280;65021;53.174;18.160;2023-05-07T05:57:16;102131.38;;;10.11;73.46
76229;BME280;65021;53.174;18.160;2023-05-07T05:59:43;102136.13;;;10.29;72.56
76229;BME280;65021;53.174;18.160;2023-05-07T06:02:10;102134.44;;;10.39;70.61
76229;BME280;65021;53.174;18.160;2023-05-07T06:04:37;102131.86;;;10.33;68.82
76229;BME280;65021;53.174;18.160;2023-05-07T06:07:03;102134.13;;;10.31;70.04
76229;BME280;65021;53.174;18.160;2023-05-07T06:09:30;102135.04;;;10.51;72.00
76229;BME280;65021;53.174;18.160;2023-05-07T06:11:56;102136.34;;;10.72;71.45
76229;BME280;65021;53.174;18.160;2023-05-07T06:14:23;102138.27;;;10.86;70.77
76229;BME280;65021;53.174;18.160;2023-05-07T06:16:49;102138.13;;;10.92;70.80
76229;BME280;65021;53.174;18.160;2023-05-07T06:19:16;102134.30;;;11.04;70.26
76229;BME280;65021;53.174;18.160;2023-05-07T06:21:47;102137.32;;;11.22;70.87
76229;BME280;65021;53.174;18.160;2023-05-07T06:24:13;102132.75;;;11.43;70.43
76229;BME280;65021;53.174;18.160;2023-05-07T06:26:40;102133.92;;;11.53;67.16
76229;BME280;65021;53.174;18.160;2023-05-07T06:29:07;102136.00;;;11.61;68.84
76229;BME280;65021;53.174;18.160;2023-05-07T06:31:33;102136.38;;;11.72;67.29
76229;BME280;65021;53.174;18.160;2023-05-07T06:34:00;102136.08;;;11.91;68.60
76229;BME280;65021;53.174;18.160;2023-05-07T06:36:28;102132.95;;;11.99;65.92
76229;BME280;65021;53.174;18.160;2023-05-07T06:38:55;102132.64;;;12.06;65.48
76229;BME280;65021;53.174;18.160;2023-05-07T06:41:21;102132.85;;;12.09;65.07
76229;BME280;65021;53.174;18.160;2023-05-07T06:43:48;102136.73;;;12.39;66.83
76229;BME280;65021;53.174;18.160;2023-05-07T06:46:15;102135.83;;;12.77;61.29
76229;BME280;65021;53.174;18.160;2023-05-07T06:48:42;102136.09;;;13.17;63.27
76229;BME280;65021;53.174;18.160;2023-05-07T06:51:08;102139.81;;;13.69;64.64
76229;BME280;65021;53.174;18.160;2023-05-07T06:53:35;102140.19;;;13.81;63.38
76229;BME280;65021;53.174;18.160;2023-05-07T06:56:02;102146.04;;;13.40;62.61
76229;BME280;65021;53.174;18.160;2023-05-07T06:58:28;102151.66;;;13.17;64.06
76229;BME280;65021;53.174;18.160;2023-05-07T07:00:55;102152.86;;;13.05;63.64
76229;BME280;65021;53.174;18.160;2023-05-07T07:03:21;102158.70;;;12.89;60.95
76229;BME280;65021;53.174;18.160;2023-05-07T07:05:52;102161.52;;;12.76;62.79
76229;BME280;65021;53.174;18.160;2023-05-07T07:08:19;102161.30;;;12.71;63.65
76229;BME280;65021;53.174;18.160;2023-05-07T07:10:47;102162.25;;;12.65;61.61
76229;BME280;65021;53.174;18.160;2023-05-07T07:13:14;102168.06;;;12.62;61.75
76229;BME280;65021;53.174;18.160;2023-05-07T07:15:41;102167.17;;;12.56;61.56
76229;BME280;65021;53.174;18.160;2023-05-07T07:18:07;102168.25;;;12.54;61.43
76229;BME280;65021;53.174;18.160;2023-05-07T07:20:34;102167.32;;;12.60;60.01
76229;BME280;65021;53.174;18.160;2023-05-07T07:23:01;102168.15;;;12.48;59.85
76229;BME280;65021;53.174;18.160;2023-05-07T07:25:27;102171.65;;;12.53;60.97
76229;BME280;65021;53.174;18.160;2023-05-07T07:27:54;102173.33;;;12.58;59.86
76229;BME280;65021;53.174;18.160;2023-05-07T07:30:20;102173.21;;;12.62;58.85
76229;BME280;65021;53.174;18.160;2023-05-07T07:32:47;102175.98;;;12.53;59.20
76229;BME280;65021;53.174;18.160;2023-05-07T07:35:13;102170.73;;;12.68;61.22
76229;BME280;65021;53.174;18.160;2023-05-07T07:37:40;102166.83;;;12.84;60.70
76229;BME280;65021;53.174;18.160;2023-05-07T07:40:07;102167.28;;;12.80;56.56
76229;BME280;65021;53.174;18.160;2023-05-07T07:42:34;102163.36;;;12.65;56.65
76229;BME280;65021;53.174;18.160;2023-05-07T07:45:00;102166.08;;;12.64;57.97
76229;BME280;65021;53.174;18.160;2023-05-07T07:47:27;102159.98;;;12.75;57.66
76229;BME280;65021;53.174;18.160;2023-05-07T07:49:54;102166.55;;;12.71;53.80
76229;BME280;65021;53.174;18.160;2023-05-07T07:52:20;102168.93;;;12.72;54.20
76229;BME280;65021;53.174;18.160;2023-05-07T07:54:47;102173.49;;;12.66;51.74
76229;BME280;65021;53.174;18.160;2023-05-07T07:57:13;102167.13;;;12.62;51.15
76229;BME280;65021;53.174;18.160;2023-05-07T07:59:40;102167.43;;;12.72;52.19
76229;BME280;65021;53.174;18.160;2023-05-07T08:02:06;102170.36;;;12.78;50.35
76229;BME280;65021;53.174;18.160;2023-05-07T08:04:33;102168.77;;;12.77;52.18
76229;BME280;65021;53.174;18.160;2023-05-07T08:06:59;102172.67;;;12.82;49.22
76229;BME280;65021;53.174;18.160;2023-05-07T08:09:26;102175.33;;;12.84;49.53
76229;BME280;65021;53.174;18.160;2023-05-07T08:11:53;102176.06;;;12.83;48.63
76229;BME280;65021;53.174;18.160;2023-05-07T08:14:19;102174.73;;;12.88;50.92
76229;BME280;65021;53.174;18.160;2023-05-07T08:16:46;102176.29;;;13.01;50.10
76229;BME280;65021;53.174;18.160;2023-05-07T08:19:13;102173.75;;;13.01;48.97
76229;BME280;65021;53.174;18.160;2023-05-07T08:21:40;102173.69;;;13.07;50.42
76229;BME280;65021;53.174;18.160;2023-05-07T08:24:07;102175.11;;;12.99;48.35
76229;BME280;65021;53.174;18.160;2023-05-07T08:26:33;102176.91;;;12.98;51.12
76229;BME280;65021;53.174;18.160;2023-05-07T08:29:02;102178.13;;;12.96;46.05
76229;BME280;65021;53.174;18.160;2023-05-07T08:31:28;102182.52;;;12.93;47.56
76229;BME280;65021;53.174;18.160;2023-05-07T08:33:55;102184.05;;;13.03;48.12
76229;BME280;65021;53.174;18.160;2023-05-07T08:36:22;102177.95;;;13.11;49.35
76229;BME280;65021;53.174;18.160;2023-05-07T08:38:48;102183.27;;;13.30;48.90
76229;BME280;65021;53.174;18.160;2023-05-07T08:41:15;102182.83;;;13.44;49.55
76229;BME280;65021;53.174;18.160;2023-05-07T08:43:47;102184.39;;;13.51;48.89
76229;BME280;65021;53.174;18.160;2023-05-07T08:46:17;102185.66;;;13.48;47.24
76229;BME280;65021;53.174;18.160;2023-05-07T08:48:44;102186.27;;;13.30;46.87
76229;BME280;65021;53.174;18.160;2023-05-07T08:51:17;102188.77;;;13.31;47.04
76229;BME280;65021;53.174;18.160;2023-05-07T08:53:45;102195.21;;;13.39;48.45
76229;BME280;65021;53.174;18.160;2023-05-07T08:56:12;102198.38;;;13.48;47.19
76229;BME280;65021;53.174;18.160;2023-05-07T08:58:38;102193.77;;;13.53;47.90
76229;BME280;65021;53.174;18.160;2023-05-07T09:01:08;102195.92;;;13.57;47.26
76229;BME280;65021;53.174;18.160;2023-05-07T09:03:35;102190.86;;;13.63;48.26
76229;BME280;65021;53.174;18.160;2023-05-07T09:06:03;102195.15;;;13.66;47.24
76229;BME280;65021;53.174;18.160;2023-05-07T09:08:29;102192.80;;;13.71;48.10
76229;BME280;65021;53.174;18.160;2023-05-07T09:10:56;102191.63;;;13.79;48.31
76229;BME280;65021;53.174;18.160;2023-05-07T09:13:22;102190.91;;;13.83;46.79
76229;BME280;65021;53.174;18.160;2023-05-07T09:15:49;102197.81;;;13.73;45.54
76229;BME280;65021;53.174;18.160;2023-05-07T09:18:15;102197.73;;;13.66;44.71
76229;BME280;65021;53.174;18.160;2023-05-07T09:20:42;102197.33;;;13.59;45.70
76229;BME280;65021;53.174;18.160;2023-05-07T09:23:09;102195.19;;;13.66;46.38
76229;BME280;65021;53.174;18.160;2023-05-07T09:25:36;102190.23;;;13.70;46.64
76229;BME280;65021;53.174;18.160;2023-05-07T09:28:04;102196.20;;;13.67;43.97
76229;BME280;65021;53.174;18.160;2023-05-07T09:30:33;102188.29;;;13.56;45.72
76229;BME280;65021;53.174;18.160;2023-05-07T09:33:02;102193.19;;;13.63;46.86
76229;BME280;65021;53.174;18.160;2023-05-07T09:35:30;102191.98;;;13.67;45.89
76229;BME280;65021;53.174;18.160;2023-05-07T09:37:58;102192.39;;;13.57;46.34
76229;BME280;65021;53.174;18.160;2023-05-07T09:40:27;102195.14;;;13.61;46.36
76229;BME280;65021;53.174;18.160;2023-05-07T09:42:54;102200.50;;;13.55;44.77
76229;BME280;65021;53.174;18.160;2023-05-07T09:45:28;102201.64;;;13.53;45.44
76229;BME280;65021;53.174;18.160;2023-05-07T09:47:57;102197.20;;;13.54;45.21
76229;BME280;65021;53.174;18.160;2023-05-07T09:50:29;102197.91;;;13.60;46.53
76229;BME280;65021;53.174;18.160;2023-05-07T09:52:57;102194.71;;;13.72;47.89
76229;BME280;65021;53.174;18.160;2023-05-07T09:55:23;102194.37;;;13.88;46.57
76229;BME280;65021;53.174;18.160;2023-05-07T09:57:51;102194.77;;;13.98;46.28
76229;BME280;65021;53.174;18.160;2023-05-07T10:00:19;102197.30;;;13.97;46.58
76229;BME280;65021;53.174;18.160;2023-05-07T10:02:49;102198.79;;;14.07;47.09
76229;BME280;65021;53.174;18.160;2023-05-07T10:05:21;102206.40;;;14.16;46.92
76229;BME280;65021;53.174;18.160;2023-05-07T10:07:48;102213.16;;;14.15;45.80
76229;BME280;65021;53.174;18.160;2023-05-07T10:10:16;102213.50;;;14.05;45.90
76229;BME280;65021;53.174;18.160;2023-05-07T10:12:43;102215.23;;;14.02;46.17
76229;BME280;65021;53.174;18.160;2023-05-07T10:15:11;102221.38;;;14.05;46.80
76229;BME280;65021;53.174;18.160;2023-05-07T10:17:39;102213.69;;;14.08;44.39
76229;BME280;65021;53.174;18.160;2023-05-07T10:20:07;102211.71;;;14.11;45.12
76229;BME280;65021;53.174;18.160;2023-05-07T10:22:38;102211.11;;;14.15;45.42
76229;BME280;65021;53.174;18.160;2023-05-07T10:25:16;102214.84;;;14.32;46.38
76229;BME280;65021;53.174;18.160;2023-05-07T10:27:44;102214.11;;;14.52;45.48
76229;BME280;65021;53.174;18.160;2023-05-07T10:32:56;102212.69;;;14.39;44.78
76229;BME280;65021;53.174;18.160;2023-05-07T10:35:37;102216.52;;;14.42;44.88
76229;BME280;65021;53.174;18.160;2023-05-07T10:38:05;102212.43;;;14.34;43.77
76229;BME280;65021;53.174;18.160;2023-05-07T10:40:31;102216.20;;;14.45;44.50
76229;BME280;65021;53.174;18.160;2023-05-07T10:43:00;102210.98;;;14.58;44.16
76229;BME280;65021;53.174;18.160;2023-05-07T10:45:28;102209.59;;;14.66;43.54
76229;BME280;65021;53.174;18.160;2023-05-07T10:48:15;102205.86;;;14.71;44.63
76229;BME280;65021;53.174;18.160;2023-05-07T10:50:43;102209.42;;;14.80;44.11
76229;BME280;65021;53.174;18.160;2023-05-07T10:58:44;102206.20;;;14.82;44.30
76229;BME280;65021;53.174;18.160;2023-05-07T11:01:11;102201.46;;;14.97;44.21
76229;BME280;65021;53.174;18.160;2023-05-07T11:04:16;102202.59;;;15.02;43.24
76229;BME280;65021;53.174;18.160;2023-05-07T11:15:07;102207.77;;;15.25;43.86
76229;BME280;65021;53.174;18.160;2023-05-07T11:17:51;102212.16;;;15.30;43.20
76229;BME280;65021;53.174;18.160;2023-05-07T11:20:18;102212.98;;;15.39;43.27
76229;BME280;65021;53.174;18.160;2023-05-07T11:22:46;102215.87;;;15.42;42.25
76229;BME280;65021;53.174;18.160;2023-05-07T11:25:19;102216.83;;;15.39;42.70
76229;BME280;65021;53.174;18.160;2023-05-07T11:27:45;102213.77;;;15.51;42.51
76229;BME280;65021;53.174;18.160;2023-05-07T11:30:18;102218.02;;;15.53;40.80
76229;BME280;65021;53.174;18.160;2023-05-07T11:32:47;102216.13;;;15.43;41.26
76229;BME280;65021;53.174;18.160;2023-05-07T11:35:15;102211.00;;;15.37;41.04
76229;BME280;65021;53.174;18.160;2023-05-07T11:37:44;102205.92;;;15.34;41.51
76229;BME280;65021;53.174;18.160;2023-05-07T11:40:11;102204.90;;;15.33;40.27
76229;BME280;65021;53.174;18.160;2023-05-07T11:42:40;102205.19;;;15.12;39.11
76229;BME280;65021;53.174;18.160;2023-05-07T11:45:09;102204.44;;;15.08;40.56
76229;BME280;65021;53.174;18.160;2023-05-07T11:47:35;102206.79;;;15.19;40.94
76229;BME280;65021;53.174;18.160;2023-05-07T11:50:04;102206.59;;;15.23;40.46
76229;BME280;65021;53.174;18.160;2023-05-07T11:52:32;102199.88;;;15.32;40.81
76229;BME280;65021;53.174;18.160;2023-05-07T11:54:59;102207.23;;;15.46;41.28
76229;BME280;65021;53.174;18.160;2023-05-07T11:57:27;102207.41;;;15.64;40.99
76229;BME280;65021;53.174;18.160;2023-05-07T11:59:54;102208.99;;;15.74;41.00
76229;BME280;65021;53.174;18.160;2023-05-07T12:02:21;102210.61;;;15.77;41.21
76229;BME280;65021;53.174;18.160;2023-05-07T12:04:48;102212.90;;;15.68;39.77
76229;BME280;65021;53.174;18.160;2023-05-07T12:07:15;102209.86;;;15.58;40.27
76229;BME280;65021;53.174;18.160;2023-05-07T12:09:43;102213.44;;;15.60;41.34
76229;BME280;65021;53.174;18.160;2023-05-07T12:12:10;102216.92;;;15.63;40.76
76229;BME280;65021;53.174;18.160;2023-05-07T12:14:39;102215.00;;;15.49;39.86
76229;BME280;65021;53.174;18.160;2023-05-07T12:17:10;102215.86;;;15.37;39.91
76229;BME280;65021;53.174;18.160;2023-05-07T12:19:38;102218.84;;;15.22;40.85
76229;BME280;65021;53.174;18.160;2023-05-07T12:22:09;102220.26;;;14.94;40.15
76229;BME280;65021;53.174;18.160;2023-05-07T12:24:47;102224.83;;;14.81;39.49
76229;BME280;65021;53.174;18.160;2023-05-07T12:27:14;102218.65;;;14.68;39.43
76229;BME280;65021;53.174;18.160;2023-05-07T12:29:48;102220.84;;;14.68;39.39
76229;BME280;65021;53.174;18.160;2023-05-07T12:32:20;102217.33;;;14.81;39.49
76229;BME280;65021;53.174;18.160;2023-05-07T12:34:51;102214.54;;;14.91;39.35
76229;BME280;65021;53.174;18.160;2023-05-07T12:37:23;102213.42;;;14.98;39.80
76229;BME280;65021;53.174;18.160;2023-05-07T12:40:06;102218.40;;;15.13;39.83
76229;BME280;65021;53.174;18.160;2023-05-07T12:42:37;102213.18;;;15.35;39.74
76229;BME280;65021;53.174;18.160;2023-05-07T12:45:11;102212.52;;;15.59;40.47
76229;BME280;65021;53.174;18.160;2023-05-07T12:47:38;102215.27;;;15.74;39.63
76229;BME280;65021;53.174;18.160;2023-05-07T12:50:06;102211.90;;;15.82;39.28
76229;BME280;65021;53.174;18.160;2023-05-07T12:52:33;102213.67;;;15.88;38.28
76229;BME280;65021;53.174;18.160;2023-05-07T12:55:05;102205.45;;;15.94;38.62
76229;BME280;65021;53.174;18.160;2023-05-07T12:57:43;102200.25;;;16.09;39.25
76229;BME280;65021;53.174;18.160;2023-05-07T13:00:10;102206.96;;;16.19;38.49
76229;BME280;65021;53.174;18.160;2023-05-07T13:02:39;102211.52;;;15.99;36.82
76229;BME280;65021;53.174;18.160;2023-05-07T13:05:06;102215.00;;;15.80;37.40
76229;BME280;65021;53.174;18.160;2023-05-07T13:07:33;102209.69;;;15.83;37.75